Time;durP1;ratioP1;P1;durP2;ratioP2;P2;SDS_P1;SDS_P2;PMS_P1;PMS_P2;Temp;Humidity;BMP_temperature;BMP_pressure;BME280_temperature;BME280_humidity;BME280_pressure;Samples;Min_cycle;Max_cycle;Signal;HPM_P1;HPM_P2
2023/07/07 00:01:07;;;;;;;;;;;25.90;52.40;;;;;;5092732;28;19928;-57
2023/07/07 00:03:34;;;;;;;;;;;25.90;52.40;;;;;;5092148;28;20388;-58
2023/07/07 00:06:02;;;;;;;;;;;25.90;52.40;;;;;;5094264;28;20429;-57
2023/07/07 00:08:29;;;;;;;;;;;25.90;52.40;;;;;;5094795;28;19924;-57
2023/07/07 00:10:58;;;;;;;;;;;25.90;52.40;;;;;;5096419;28;20292;-57
2023/07/07 00:13:26;;;;;;;;;;;25.90;52.40;;;;;;5096795;28;19931;-57
2023/07/07 00:16:00;;;;;;;;;;;25.90;52.40;;;;;;5095960;28;19931;-57
2023/07/07 00:18:27;;;;;;;;;;;25.90;52.40;;;;;;5096511;28;20295;-56
2023/07/07 00:20:56;;;;;;;;;;;25.90;52.40;;;;;;5096352;28;19924;-57
2023/07/07 00:23:24;;;;;;;;;;;26.00;52.60;;;;;;5095688;28;19967;-57
2023/07/07 00:26:02;;;;;;;;;;;25.90;52.40;;;;;;5096071;28;19977;-57
2023/07/07 00:28:30;;;;;;;;;;;26.00;52.40;;;;;;5096093;28;19928;-57
2023/07/07 00:30:57;;;;;;;;;;;26.00;52.40;;;;;;5095545;28;19924;-57
2023/07/07 00:33:25;;;;;;;;;;;26.00;52.40;;;;;;5095735;28;20399;-57
2023/07/07 00:35:53;;;;;;;;;;;25.90;52.30;;;;;;5095627;28;19928;-57
2023/07/07 00:38:20;;;;;;;;;;;26.00;52.40;;;;;;5095601;28;19928;-58
2023/07/07 00:40:50;;;;;;;;;;;25.90;52.30;;;;;;5095495;28;19977;-57
2023/07/07 00:43:18;;;;;;;;;;;26.00;52.40;;;;;;5095436;28;19928;-57
2023/07/07 00:45:45;;;;;;;;;;;25.90;52.30;;;;;;5094711;28;19964;-57
2023/07/07 00:48:14;;;;;;;;;;;26.00;52.40;;;;;;5094806;28;20014;-57
2023/07/07 00:50:44;;;;;;;;;;;26.00;52.40;;;;;;5095320;28;19947;-59
2023/07/07 00:53:12;;;;;;;;;;;26.00;52.40;;;;;;5095481;28;19958;-57
2023/07/07 00:55:41;;;;;;;;;;;26.00;52.40;;;;;;5095914;28;20025;-57
2023/07/07 00:58:10;;;;;;;;;;;25.90;52.30;;;;;;5095338;28;20044;-57
2023/07/07 01:00:38;;;;;;;;;;;25.90;52.30;;;;;;5095147;28;20319;-57
2023/07/07 01:03:09;;;;;;;;;;;26.00;52.40;;;;;;5094893;28;19979;-57
2023/07/07 01:05:37;;;;;;;;;;;25.90;52.30;;;;;;5094693;28;20016;-57
2023/07/07 01:08:06;;;;;;;;;;;25.90;52.40;;;;;;5095214;28;19928;-57
2023/07/07 01:10:32;;;;;;;;;;;25.90;52.40;;;;;;5095351;28;19960;-57
2023/07/07 01:13:00;;;;;;;;;;;25.90;52.40;;;;;;5094879;28;20449;-57
2023/07/07 01:15:29;;;;;;;;;;;25.90;52.40;;;;;;5093706;28;19928;-57
2023/07/07 01:18:04;;;;;;;;;;;25.90;52.40;;;;;;5094590;28;19924;-57
2023/07/07 01:20:41;;;;;;;;;;;25.90;52.40;;;;;;5093579;28;20705;-57
2023/07/07 01:23:28;;;;;;;;;;;25.90;52.40;;;;;;5094914;28;19932;-57
2023/07/07 01:26:15;;;;;;;;;;;25.90;52.50;;;;;;5094532;28;19924;-57
2023/07/07 01:29:03;;;;;;;;;;;25.90;52.50;;;;;;5094846;28;19924;-57
2023/07/07 01:31:32;;;;;;;;;;;25.90;52.50;;;;;;5094601;28;20023;-57
2023/07/07 01:34:00;;;;;;;;;;;25.90;52.50;;;;;;5094952;28;19975;-57
2023/07/07 01:36:28;;;;;;;;;;;25.90;52.50;;;;;;5094476;28;20368;-57
2023/07/07 01:38:54;;;;;;;;;;;25.90;52.50;;;;;;5094654;28;19925;-57
2023/07/07 01:41:41;;;;;;;;;;;25.90;52.60;;;;;;5093524;28;19936;-57
2023/07/07 01:44:28;;;;;;;;;;;25.90;52.60;;;;;;5094055;28;19924;-57
2023/07/07 01:47:15;;;;;;;;;;;25.90;52.60;;;;;;5093273;28;20332;-57
2023/07/07 01:49:54;;;;;;;;;;;25.90;52.60;;;;;;5093477;28;19932;-56
2023/07/07 01:52:39;;;;;;;;;;;25.90;52.60;;;;;;5094348;28;20359;-57
2023/07/07 01:55:13;;;;;;;;;;;25.90;52.60;;;;;;5094415;28;19924;-58
2023/07/07 01:57:41;;;;;;;;;;;25.80;52.60;;;;;;5094106;28;19935;-57
2023/07/07 02:00:09;;;;;;;;;;;25.90;52.60;;;;;;5093998;28;20368;-57
2023/07/07 02:02:36;;;;;;;;;;;25.90;52.60;;;;;;5094193;28;19985;-57
2023/07/07 02:05:03;;;;;;;;;;;25.90;52.60;;;;;;5094403;28;20006;-57
2023/07/07 02:07:30;;;;;;;;;;;25.80;52.60;;;;;;5093262;28;20451;-57
2023/07/07 02:09:57;;;;;;;;;;;25.80;52.60;;;;;;5093894;28;20373;-57
2023/07/07 02:12:24;;;;;;;;;;;25.90;52.70;;;;;;5094010;28;19967;-57
2023/07/07 02:14:51;;;;;;;;;;;25.80;52.60;;;;;;5093447;28;20024;-57
2023/07/07 02:17:18;;;;;;;;;;;25.80;52.60;;;;;;5094182;28;19999;-57
2023/07/07 02:19:45;;;;;;;;;;;25.80;52.60;;;;;;5094100;28;19924;-57
2023/07/07 02:22:13;;;;;;;;;;;25.80;52.60;;;;;;5093362;28;19927;-57
2023/07/07 02:24:40;;;;;;;;;;;25.80;52.60;;;;;;5093840;28;19946;-57
2023/07/07 02:27:10;;;;;;;;;;;25.80;52.60;;;;;;5093872;28;19981;-57
2023/07/07 02:29:38;;;;;;;;;;;25.80;52.60;;;;;;5093240;28;19924;-57
2023/07/07 02:32:05;;;;;;;;;;;25.80;52.60;;;;;;5093488;28;19924;-57
2023/07/07 02:34:32;;;;;;;;;;;25.80;52.60;;;;;;5093950;28;20367;-57
2023/07/07 02:36:59;;;;;;;;;;;25.90;52.70;;;;;;5093048;28;19924;-58
2023/07/07 02:39:27;;;;;;;;;;;25.90;52.70;;;;;;5083529;28;19998;-57
2023/07/07 02:41:54;;;;;;;;;;;25.90;52.70;;;;;;5072968;28;20353;-57
2023/07/07 02:44:21;;;;;;;;;;;25.90;52.60;;;;;;5072891;28;20269;-57
2023/07/07 02:46:49;;;;;;;;;;;25.90;52.60;;;;;;5072809;28;19924;-57
2023/07/07 02:49:17;;;;;;;;;;;25.90;52.60;;;;;;5072622;28;19924;-57
2023/07/07 02:51:44;;;;;;;;;;;25.80;52.60;;;;;;5072936;28;20426;-57
2023/07/07 02:54:11;;;;;;;;;;;25.90;53.20;;;;;;5073252;28;20385;-57
2023/07/07 02:56:38;;;;;;;;;;;25.90;52.60;;;;;;5072608;28;19979;-57
2023/07/07 02:59:05;;;;;;;;;;;25.90;52.60;;;;;;5072823;28;19951;-57
2023/07/07 03:01:32;;;;;;;;;;;25.90;52.60;;;;;;5072650;28;19931;-57
2023/07/07 03:04:00;;;;;;;;;;;25.90;52.60;;;;;;5072866;28;19977;-57
2023/07/07 03:06:27;;;;;;;;;;;25.90;52.60;;;;;;5072544;28;19964;-57
2023/07/07 03:08:54;;;;;;;;;;;25.90;52.60;;;;;;5072800;28;19925;-57
2023/07/07 03:11:21;;;;;;;;;;;25.90;52.60;;;;;;5073088;28;19924;-57
2023/07/07 03:13:49;;;;;;;;;;;25.90;52.60;;;;;;5072960;28;20285;-57
2023/07/07 03:16:20;;;;;;;;;;;25.90;52.60;;;;;;5072995;28;20266;-57
2023/07/07 03:18:49;;;;;;;;;;;25.90;52.60;;;;;;5072676;28;19977;-57
2023/07/07 03:21:17;;;;;;;;;;;25.80;52.50;;;;;;5072676;28;20023;-57
2023/07/07 03:23:44;;;;;;;;;;;25.90;52.60;;;;;;5071494;28;19925;-57
2023/07/07 03:26:13;;;;;;;;;;;25.80;52.50;;;;;;5072959;28;20289;-57
2023/07/07 03:28:40;;;;;;;;;;;25.80;52.50;;;;;;5072403;28;19932;-57
2023/07/07 03:31:11;;;;;;;;;;;25.90;52.60;;;;;;5072826;28;19924;-58
2023/07/07 03:33:39;;;;;;;;;;;25.90;52.60;;;;;;5072464;28;20452;-57
2023/07/07 03:36:08;;;;;;;;;;;25.90;52.60;;;;;;5100552;28;20513;-57
2023/07/07 03:38:35;;;;;;;;;;;25.90;52.60;;;;;;5094037;28;20388;-57
2023/07/07 03:41:03;;;;;;;;;;;25.90;52.60;;;;;;5109426;28;19924;-57
2023/07/07 03:43:33;;;;;;;;;;;25.90;52.60;;;;;;5096181;28;20280;-57
2023/07/07 03:46:01;;;;;;;;;;;25.90;52.50;;;;;;5096173;28;19924;-57
2023/07/07 03:48:28;;;;;;;;;;;25.90;52.50;;;;;;5096385;28;19925;-57
2023/07/07 03:50:59;;;;;;;;;;;25.90;52.40;;;;;;5094439;28;20261;-57
2023/07/07 03:53:27;;;;;;;;;;;25.90;52.40;;;;;;5096495;28;19930;-57
2023/07/07 03:55:55;;;;;;;;;;;25.90;52.40;;;;;;5110435;28;19959;-57
2023/07/07 03:58:24;;;;;;;;;;;26.00;52.50;;;;;;5115607;28;19928;-57
2023/07/07 04:00:51;;;;;;;;;;;25.90;52.40;;;;;;5110506;28;19925;-57
2023/07/07 04:03:19;;;;;;;;;;;26.00;52.40;;;;;;5112561;28;19924;-57
2023/07/07 04:05:47;;;;;;;;;;;26.00;52.40;;;;;;5081728;28;20144;-57
2023/07/07 04:08:21;;;;;;;;;;;26.00;52.40;;;;;;5084603;28;19975;-57
2023/07/07 04:11:00;;;;;;;;;;;26.00;52.30;;;;;;5078796;28;20341;-57
2023/07/07 04:13:28;;;;;;;;;;;26.00;52.30;;;;;;5085919;28;19928;-57
2023/07/07 04:15:59;;;;;;;;;;;26.00;52.30;;;;;;5082706;28;19925;-57
2023/07/07 04:18:26;;;;;;;;;;;26.10;52.30;;;;;;5091659;28;19923;-57
2023/07/07 04:20:54;;;;;;;;;;;26.00;52.20;;;;;;5100834;28;19923;-57
2023/07/07 04:23:22;;;;;;;;;;;26.00;52.20;;;;;;5089843;28;19983;-57
2023/07/07 04:25:50;;;;;;;;;;;26.10;52.20;;;;;;5110003;28;19961;-57
2023/07/07 04:28:16;;;;;;;;;;;26.10;52.20;;;;;;5104619;28;19981;-58
2023/07/07 04:30:44;;;;;;;;;;;26.10;52.10;;;;;;5095601;28;19924;-57
2023/07/07 04:33:11;;;;;;;;;;;26.10;52.10;;;;;;5099205;28;19978;-57
2023/07/07 04:35:38;;;;;;;;;;;26.10;52.10;;;;;;5095427;28;19924;-57
2023/07/07 04:38:05;;;;;;;;;;;26.10;52.10;;;;;;5095604;28;19932;-57
2023/07/07 04:40:32;;;;;;;;;;;26.10;52.10;;;;;;5091116;28;19928;-57
2023/07/07 04:42:59;;;;;;;;;;;26.00;52.20;;;;;;5074723;28;19928;-57
2023/07/07 04:45:26;;;;;;;;;;;25.80;52.30;;;;;;5108738;28;19947;-57
2023/07/07 04:47:53;;;;;;;;;;;25.60;52.60;;;;;;5084506;28;19977;-57
2023/07/07 04:50:20;;;;;;;;;;;25.40;52.90;;;;;;5089753;28;19924;-58
2023/07/07 04:52:47;;;;;;;;;;;25.10;52.50;;;;;;5087637;28;19959;-57
2023/07/07 04:55:14;;;;;;;;;;;24.80;51.90;;;;;;5085028;28;20236;-56
2023/07/07 04:57:41;;;;;;;;;;;24.50;51.40;;;;;;5083788;28;19924;-57
2023/07/07 05:00:08;;;;;;;;;;;24.20;51.30;;;;;;5076060;28;20066;-57
2023/07/07 05:02:35;;;;;;;;;;;23.90;51.10;;;;;;5072836;28;19925;-56
2023/07/07 05:05:03;;;;;;;;;;;23.50;50.90;;;;;;5073478;28;19980;-57
2023/07/07 05:07:30;;;;;;;;;;;23.10;51.10;;;;;;5082132;28;19963;-57
2023/07/07 05:09:57;;;;;;;;;;;22.80;51.60;;;;;;5091035;28;19924;-58
2023/07/07 05:12:24;;;;;;;;;;;22.50;51.40;;;;;;5093564;28;20392;-60
2023/07/07 05:14:52;;;;;;;;;;;22.20;53.00;;;;;;5091014;28;20391;-64
2023/07/07 05:17:19;;;;;;;;;;;21.90;51.60;;;;;;5081340;28;19932;-63
2023/07/07 05:19:46;;;;;;;;;;;21.70;52.60;;;;;;5088194;28;19924;-63
2023/07/07 05:22:13;;;;;;;;;;;21.50;53.40;;;;;;5076420;28;19986;-63
2023/07/07 05:24:40;;;;;;;;;;;21.30;54.10;;;;;;5079013;28;19928;-63
2023/07/07 05:27:07;;;;;;;;;;;21.20;54.60;;;;;;5077484;28;19966;-63
2023/07/07 05:29:34;;;;;;;;;;;21.00;55.90;;;;;;5074759;28;19955;-63
2023/07/07 05:32:01;;;;;;;;;;;20.90;55.40;;;;;;5072743;28;19929;-63
2023/07/07 05:34:28;;;;;;;;;;;20.70;56.40;;;;;;5075489;28;19924;-64
2023/07/07 05:36:55;;;;;;;;;;;20.70;56.20;;;;;;5077022;28;20347;-61
2023/07/07 05:39:22;;;;;;;;;;;20.60;57.30;;;;;;5076382;28;19932;-61
2023/07/07 05:41:49;;;;;;;;;;;20.50;57.30;;;;;;5081190;28;19932;-61
2023/07/07 05:44:17;;;;;;;;;;;20.40;57.00;;;;;;5072896;28;19944;-61
2023/07/07 05:46:44;;;;;;;;;;;20.40;57.50;;;;;;5074016;28;19925;-62
2023/07/07 05:49:11;;;;;;;;;;;20.30;57.10;;;;;;5074424;28;20272;-62
2023/07/07 05:51:38;;;;;;;;;;;20.30;57.60;;;;;;5074085;28;20024;-62
2023/07/07 05:54:05;;;;;;;;;;;20.20;57.50;;;;;;5078124;28;19967;-62
2023/07/07 05:56:33;;;;;;;;;;;20.20;57.40;;;;;;5076227;28;20069;-62
2023/07/07 05:59:01;;;;;;;;;;;20.20;58.00;;;;;;5081393;28;19957;-61
2023/07/07 06:01:28;;;;;;;;;;;20.20;57.70;;;;;;5074287;28;19932;-61
2023/07/07 06:03:56;;;;;;;;;;;20.20;58.50;;;;;;5068510;28;20426;-62
2023/07/07 06:06:24;;;;;;;;;;;20.20;58.80;;;;;;5073828;28;19928;-62
2023/07/07 06:08:51;;;;;;;;;;;20.20;58.80;;;;;;5071758;28;19967;-63
2023/07/07 06:11:18;;;;;;;;;;;20.20;59.50;;;;;;5073447;28;19931;-63
2023/07/07 06:13:46;;;;;;;;;;;20.20;59.60;;;;;;5073251;28;19932;-62
2023/07/07 06:16:13;;;;;;;;;;;20.30;59.70;;;;;;5072573;28;19932;-62
2023/07/07 06:18:40;;;;;;;;;;;20.30;59.80;;;;;;5078697;28;20065;-63
2023/07/07 06:21:09;;;;;;;;;;;20.40;59.50;;;;;;5069944;28;20034;-63
2023/07/07 06:23:36;;;;;;;;;;;20.50;59.50;;;;;;5076420;28;19969;-63
2023/07/07 06:26:03;;;;;;;;;;;20.50;59.00;;;;;;5071115;28;20002;-63
2023/07/07 06:28:30;;;;;;;;;;;20.60;58.60;;;;;;5070975;28;19946;-63
2023/07/07 06:30:57;;;;;;;;;;;20.70;58.30;;;;;;5072881;28;19928;-63
2023/07/07 06:33:25;;;;;;;;;;;20.70;57.40;;;;;;5073014;28;19939;-63
2023/07/07 06:35:52;;;;;;;;;;;20.70;57.40;;;;;;5080364;28;20399;-63
2023/07/07 06:38:19;;;;;;;;;;;20.70;57.20;;;;;;5082280;28;19975;-63
2023/07/07 06:40:47;;;;;;;;;;;20.80;56.80;;;;;;5076722;28;19972;-64
2023/07/07 06:43:17;;;;;;;;;;;20.80;56.70;;;;;;5073595;28;19939;-64
2023/07/07 06:45:48;;;;;;;;;;;20.80;56.50;;;;;;5077888;28;19947;-64
2023/07/07 06:48:15;;;;;;;;;;;20.80;56.30;;;;;;5075270;28;19923;-63
2023/07/07 06:50:42;;;;;;;;;;;20.80;56.00;;;;;;5082421;28;19932;-63
2023/07/07 06:53:12;;;;;;;;;;;20.80;56.30;;;;;;5076495;28;19924;-63
2023/07/07 06:55:40;;;;;;;;;;;20.70;56.30;;;;;;5079324;28;19924;-63
2023/07/07 06:58:09;;;;;;;;;;;20.70;56.30;;;;;;5069940;28;19939;-63
2023/07/07 07:00:36;;;;;;;;;;;20.70;56.60;;;;;;5067917;28;20281;-63
2023/07/07 07:03:03;;;;;;;;;;;20.70;56.20;;;;;;5072406;28;19924;-64
2023/07/07 07:05:30;;;;;;;;;;;20.70;56.50;;;;;;5072878;28;19931;-63
2023/07/07 07:07:58;;;;;;;;;;;20.70;56.10;;;;;;5073931;28;19924;-64
2023/07/07 07:10:25;;;;;;;;;;;20.70;56.10;;;;;;5073048;28;19932;-64
2023/07/07 07:12:52;;;;;;;;;;;20.80;55.90;;;;;;5072476;28;19928;-63
2023/07/07 07:15:19;;;;;;;;;;;20.90;56.10;;;;;;5071711;28;19925;-65
2023/07/07 07:17:46;;;;;;;;;;;20.90;56.30;;;;;;5073791;28;19928;-66
2023/07/07 07:20:14;;;;;;;;;;;20.90;56.10;;;;;;5071808;28;19951;-65
2023/07/07 07:22:41;;;;;;;;;;;21.00;56.50;;;;;;5073724;28;19939;-62
2023/07/07 07:25:09;;;;;;;;;;;21.00;56.50;;;;;;5080595;28;19935;-65
2023/07/07 07:27:37;;;;;;;;;;;21.00;56.40;;;;;;5080279;28;20385;-65
2023/07/07 07:30:07;;;;;;;;;;;21.00;56.90;;;;;;5073455;28;19944;-63
2023/07/07 07:32:35;;;;;;;;;;;21.00;57.10;;;;;;5074378;28;19932;-63
2023/07/07 07:35:02;;;;;;;;;;;21.00;57.20;;;;;;5078325;28;19960;-68
2023/07/07 07:37:29;;;;;;;;;;;21.10;57.00;;;;;;5068039;28;19977;-65
2023/07/07 07:39:56;;;;;;;;;;;21.10;56.90;;;;;;5076830;28;19932;-65
2023/07/07 07:42:24;;;;;;;;;;;21.10;56.70;;;;;;5074277;28;20346;-66
2023/07/07 07:44:51;;;;;;;;;;;21.10;56.80;;;;;;5073898;28;19928;-66
2023/07/07 07:47:19;;;;;;;;;;;21.00;56.70;;;;;;5080630;28;19981;-65
2023/07/07 07:49:47;;;;;;;;;;;21.00;56.80;;;;;;5079557;28;19982;-66
2023/07/07 07:52:15;;;;;;;;;;;21.10;56.90;;;;;;5079965;28;19930;-64
2023/07/07 07:54:43;;;;;;;;;;;21.10;56.80;;;;;;5086768;28;19924;-64
2023/07/07 07:57:10;;;;;;;;;;;21.10;56.80;;;;;;5081479;28;19924;-64
2023/07/07 07:59:37;;;;;;;;;;;21.10;56.50;;;;;;5076641;28;20369;-62
2023/07/07 08:02:04;;;;;;;;;;;21.10;56.20;;;;;;5075985;28;19935;-62
2023/07/07 08:04:31;;;;;;;;;;;21.20;56.20;;;;;;5077063;28;20408;-64
2023/07/07 08:06:58;;;;;;;;;;;21.20;56.30;;;;;;5080676;28;20338;-63
2023/07/07 08:09:25;;;;;;;;;;;21.10;56.50;;;;;;5079411;28;20338;-61
2023/07/07 08:11:54;;;;;;;;;;;21.10;56.60;;;;;;5082399;28;19937;-62
2023/07/07 08:14:23;;;;;;;;;;;21.10;57.00;;;;;;5082409;28;19936;-59
2023/07/07 08:16:51;;;;;;;;;;;21.20;57.00;;;;;;5075165;28;20397;-60
2023/07/07 08:19:18;;;;;;;;;;;21.20;56.90;;;;;;5075660;28;19956;-58
2023/07/07 08:21:47;;;;;;;;;;;21.20;56.90;;;;;;5075412;28;19935;-57
2023/07/07 08:24:14;;;;;;;;;;;21.20;56.90;;;;;;5070963;28;19932;-59
2023/07/07 08:26:41;;;;;;;;;;;21.20;56.80;;;;;;5078151;28;19931;-59
2023/07/07 08:29:09;;;;;;;;;;;21.10;57.30;;;;;;5075252;28;19957;-59
2023/07/07 08:31:50;;;;;;;;;;;21.10;57.50;;;;;;5082903;28;19982;-59
2023/07/07 08:34:18;;;;;;;;;;;21.20;57.60;;;;;;5080719;28;20320;-60
2023/07/07 08:36:45;;;;;;;;;;;21.20;57.60;;;;;;5078170;28;20393;-60
2023/07/07 08:39:14;;;;;;;;;;;21.20;57.60;;;;;;5086069;28;19928;-58
2023/07/07 08:41:45;;;;;;;;;;;21.10;57.60;;;;;;5078870;28;19928;-60
2023/07/07 08:44:16;;;;;;;;;;;21.20;57.60;;;;;;5085227;28;19989;-59
2023/07/07 08:46:58;;;;;;;;;;;21.20;57.60;;;;;;5077645;28;20023;-60
2023/07/07 08:49:40;;;;;;;;;;;21.20;57.70;;;;;;5080535;28;19955;-60
2023/07/07 08:52:27;;;;;;;;;;;21.30;57.70;;;;;;5079889;28;19982;-60
2023/07/07 08:54:59;;;;;;;;;;;21.30;57.70;;;;;;5080955;28;19931;-61
2023/07/07 08:57:28;;;;;;;;;;;21.30;57.40;;;;;;5077532;28;19964;-60
2023/07/07 09:00:07;;;;;;;;;;;21.30;57.30;;;;;;5078434;28;20376;-57
2023/07/07 09:02:51;;;;;;;;;;;21.30;57.50;;;;;;5077382;28;19939;-57
2023/07/07 09:05:38;;;;;;;;;;;21.30;57.50;;;;;;5079252;28;19935;-58
2023/07/07 09:08:25;;;;;;;;;;;21.40;57.50;;;;;;5079343;28;19931;-60
2023/07/07 09:11:21;;;;;;;;;;;21.30;57.40;;;;;;5077133;28;20445;-61
2023/07/07 09:13:49;;;;;;;;;;;21.40;57.30;;;;;;5080342;28;19986;-62
2023/07/07 09:16:32;;;;;;;;;;;21.40;57.00;;;;;;5075665;28;19939;-59
2023/07/07 09:19:13;;;;;;;;;;;21.40;56.90;;;;;;5077076;28;19931;-60
2023/07/07 09:21:43;;;;;;;;;;;21.40;57.10;;;;;;5076744;28;19932;-60
2023/07/07 09:24:24;;;;;;;;;;;21.40;56.90;;;;;;5078878;28;19939;-60
2023/07/07 09:26:54;;;;;;;;;;;21.40;57.00;;;;;;5076776;28;19944;-58
2023/07/07 09:29:25;;;;;;;;;;;21.50;56.90;;;;;;5077651;28;20283;-60
2023/07/07 09:31:53;;;;;;;;;;;21.50;56.70;;;;;;5076186;28;20324;-58
2023/07/07 09:34:22;;;;;;;;;;;21.50;56.40;;;;;;5079976;28;19924;-59
2023/07/07 09:36:52;;;;;;;;;;;21.50;56.70;;;;;;5075964;28;19959;-58
2023/07/07 09:39:33;;;;;;;;;;;21.50;56.60;;;;;;5075053;28;20388;-59
2023/07/07 09:42:10;;;;;;;;;;;21.60;56.50;;;;;;5076029;28;19932;-59
2023/07/07 09:44:49;;;;;;;;;;;21.60;56.40;;;;;;5080517;28;19932;-59
2023/07/07 09:47:25;;;;;;;;;;;21.60;56.00;;;;;;5074607;28;20837;-60
2023/07/07 09:49:57;;;;;;;;;;;21.60;55.90;;;;;;5076938;28;21603;-60
2023/07/07 09:52:44;;;;;;;;;;;21.70;55.60;;;;;;5081832;28;19981;-59
2023/07/07 09:55:15;;;;;;;;;;;21.60;55.50;;;;;;5072294;28;19955;-59
2023/07/07 09:57:45;;;;;;;;;;;21.70;55.50;;;;;;5070675;28;19934;-57
2023/07/07 10:00:16;;;;;;;;;;;21.70;55.40;;;;;;5072982;28;19928;-58
2023/07/07 10:02:51;;;;;;;;;;;21.80;55.20;;;;;;5074104;28;20437;-59
2023/07/07 10:05:21;;;;;;;;;;;21.80;55.10;;;;;;5069277;28;21760;-58
2023/07/07 10:07:49;;;;;;;;;;;21.80;54.80;;;;;;5076401;28;20021;-58
2023/07/07 10:10:16;;;;;;;;;;;21.90;54.80;;;;;;5074407;28;19932;-58
2023/07/07 10:12:45;;;;;;;;;;;21.80;54.60;;;;;;5070031;28;20015;-57
2023/07/07 10:15:26;;;;;;;;;;;21.90;54.40;;;;;;5071613;28;20011;-61
2023/07/07 10:17:55;;;;;;;;;;;21.80;54.10;;;;;;5073970;28;19934;-59
2023/07/07 10:20:26;;;;;;;;;;;21.80;53.90;;;;;;5076368;28;20026;-59
2023/07/07 10:22:54;;;;;;;;;;;21.80;53.80;;;;;;5080253;28;19955;-59
2023/07/07 10:25:21;;;;;;;;;;;21.80;53.40;;;;;;5078077;28;20342;-58
2023/07/07 10:27:52;;;;;;;;;;;21.70;53.20;;;;;;5077513;28;19998;-58
2023/07/07 10:30:20;;;;;;;;;;;21.70;53.40;;;;;;5077834;28;19953;-57
2023/07/07 10:32:50;;;;;;;;;;;21.60;53.20;;;;;;5073845;28;19924;-59
2023/07/07 10:35:19;;;;;;;;;;;21.50;53.30;;;;;;5075113;28;19942;-58
2023/07/07 10:37:46;;;;;;;;;;;21.50;53.40;;;;;;5078150;28;20027;-60
2023/07/07 10:40:21;;;;;;;;;;;21.50;53.40;;;;;;5081085;28;19932;-59
2023/07/07 10:42:53;;;;;;;;;;;21.50;53.30;;;;;;5072846;28;19931;-58
2023/07/07 10:45:21;;;;;;;;;;;21.40;53.50;;;;;;5073727;28;19943;-60
2023/07/07 10:47:48;;;;;;;;;;;21.40;53.40;;;;;;5074892;28;20372;-58
2023/07/07 10:50:16;;;;;;;;;;;21.40;53.50;;;;;;5075021;28;20023;-61
2023/07/07 10:52:49;;;;;;;;;;;21.30;53.80;;;;;;5074348;28;19928;-60
2023/07/07 10:55:24;;;;;;;;;;;21.30;53.60;;;;;;5074814;28;20014;-61
2023/07/07 10:58:11;;;;;;;;;;;21.30;53.70;;;;;;5074106;28;19928;-56
2023/07/07 11:00:48;;;;;;;;;;;21.30;53.70;;;;;;5076713;28;20349;-60
2023/07/07 11:03:25;;;;;;;;;;;21.30;53.80;;;;;;5071305;28;20007;-60
2023/07/07 11:06:05;;;;;;;;;;;21.30;54.00;;;;;;5066375;28;20019;-61
2023/07/07 11:08:52;;;;;;;;;;;21.40;53.90;;;;;;5076452;28;19924;-61
2023/07/07 11:11:25;;;;;;;;;;;21.40;53.90;;;;;;5073281;28;20204;-62
2023/07/07 11:14:03;;;;;;;;;;;21.40;54.20;;;;;;5075306;28;19924;-61
2023/07/07 11:16:50;;;;;;;;;;;21.40;54.30;;;;;;5068727;28;19925;-61
2023/07/07 11:19:37;;;;;;;;;;;21.30;54.50;;;;;;5080521;28;20007;-61
2023/07/07 11:22:13;;;;;;;;;;;21.30;54.80;;;;;;5072878;28;20027;-61
2023/07/07 11:24:44;;;;;;;;;;;21.20;54.90;;;;;;5076740;28;19928;-60
2023/07/07 11:27:34;;;;;;;;;;;21.20;55.00;;;;;;5080197;28;20407;-59
2023/07/07 11:30:20;;;;;;;;;;;21.20;55.10;;;;;;5077659;28;20024;-61
2023/07/07 11:32:57;;;;;;;;;;;21.30;55.30;;;;;;5073913;28;19931;-61
2023/07/07 11:35:34;;;;;;;;;;;21.30;55.00;;;;;;5069884;28;19983;-63
2023/07/07 11:38:09;;;;;;;;;;;21.30;54.70;;;;;;5084366;28;20411;-61
2023/07/07 11:40:53;;;;;;;;;;;21.30;54.60;;;;;;5073347;28;19932;-61
2023/07/07 11:43:40;;;;;;;;;;;21.30;54.60;;;;;;5075168;28;19928;-60
2023/07/07 11:46:13;;;;;;;;;;;21.20;54.40;;;;;;4991973;28;20415;-60
2023/07/07 11:48:51;;;;;;;;;;;21.10;54.30;;;;;;5003940;28;19929;-61
2023/07/07 11:51:36;;;;;;;;;;;21.10;54.30;;;;;;5004586;28;19995;-61
2023/07/07 11:54:23;;;;;;;;;;;21.00;54.10;;;;;;4996573;28;19984;-61
2023/07/07 11:57:09;;;;;;;;;;;21.00;54.10;;;;;;5002682;28;19984;-60
2023/07/07 11:59:56;;;;;;;;;;;20.90;54.00;;;;;;5003912;28;19932;-61
2023/07/07 12:02:26;;;;;;;;;;;20.90;54.00;;;;;;4984121;28;19972;-60
2023/07/07 12:04:54;;;;;;;;;;;20.90;54.00;;;;;;5062557;28;19931;-58
2023/07/07 12:07:35;;;;;;;;;;;20.90;54.00;;;;;;5084012;28;19956;-57
2023/07/07 12:10:07;;;;;;;;;;;20.80;53.90;;;;;;5079623;28;20419;-58
2023/07/07 12:12:38;;;;;;;;;;;20.80;53.90;;;;;;5084924;28;19977;-58
2023/07/07 12:15:17;;;;;;;;;;;20.80;54.00;;;;;;5085755;28;19924;-58
2023/07/07 12:17:50;;;;;;;;;;;20.80;53.90;;;;;;5082635;28;20006;-58
2023/07/07 12:20:23;;;;;;;;;;;20.80;54.20;;;;;;5082164;28;20419;-58
2023/07/07 12:22:50;;;;;;;;;;;20.70;54.20;;;;;;5088985;28;20339;-59
2023/07/07 12:25:21;;;;;;;;;;;20.80;54.50;;;;;;5102079;28;19924;-58
2023/07/07 12:27:51;;;;;;;;;;;20.80;54.60;;;;;;5094833;28;19989;-58
2023/07/07 12:30:23;;;;;;;;;;;20.80;54.60;;;;;;5088359;28;19924;-57
2023/07/07 12:32:50;;;;;;;;;;;20.80;54.80;;;;;;5090598;28;19924;-57
2023/07/07 12:35:28;;;;;;;;;;;20.80;54.90;;;;;;5086523;28;19924;-56
2023/07/07 12:37:55;;;;;;;;;;;20.80;54.80;;;;;;5075144;28;20278;-58
2023/07/07 12:40:23;;;;;;;;;;;20.90;54.80;;;;;;5075310;28;19955;-56
2023/07/07 12:42:59;;;;;;;;;;;20.90;54.60;;;;;;5080548;28;19924;-55
2023/07/07 12:45:32;;;;;;;;;;;20.90;54.50;;;;;;5078167;28;19982;-56
2023/07/07 12:48:04;;;;;;;;;;;20.90;54.40;;;;;;5073866;28;19987;-55
2023/07/07 12:50:39;;;;;;;;;;;21.00;54.50;;;;;;5075651;28;19961;-57
2023/07/07 12:53:10;;;;;;;;;;;21.00;54.60;;;;;;5075283;28;19924;-57
2023/07/07 12:55:38;;;;;;;;;;;21.00;54.70;;;;;;5074816;28;19967;-59
2023/07/07 12:58:25;;;;;;;;;;;21.00;54.70;;;;;;5075175;28;19928;-57
2023/07/07 13:01:10;;;;;;;;;;;21.00;54.70;;;;;;5073786;28;19978;-57
2023/07/07 13:03:57;;;;;;;;;;;21.00;54.80;;;;;;5075412;28;19925;-57
2023/07/07 13:06:34;;;;;;;;;;;21.00;54.60;;;;;;5074879;28;19924;-57
2023/07/07 13:09:23;;;;;;;;;;;21.00;54.80;;;;;;5075288;28;19993;-57
2023/07/07 13:11:54;;;;;;;;;;;21.00;54.80;;;;;;5073914;28;19924;-56
2023/07/07 13:14:29;;;;;;;;;;;21.00;54.70;;;;;;5075255;28;20377;-56
2023/07/07 13:16:56;;;;;;;;;;;21.00;54.60;;;;;;5075412;28;20361;-57
2023/07/07 13:19:24;;;;;;;;;;;21.00;54.60;;;;;;5074970;28;19985;-60
2023/07/07 13:21:52;;;;;;;;;;;21.00;54.70;;;;;;5075113;28;19926;-59
2023/07/07 13:24:20;;;;;;;;;;;21.00;54.60;;;;;;5074119;28;19925;-58
2023/07/07 13:26:47;;;;;;;;;;;21.10;54.60;;;;;;5074770;28;19925;-60
2023/07/07 13:29:14;;;;;;;;;;;21.00;54.50;;;;;;5074955;28;19924;-59
2023/07/07 13:31:42;;;;;;;;;;;21.10;54.40;;;;;;5074850;28;19924;-59
2023/07/07 13:34:17;;;;;;;;;;;21.00;54.30;;;;;;5074649;28;19924;-58
2023/07/07 13:36:45;;;;;;;;;;;21.10;54.30;;;;;;5076535;28;19977;-61
2023/07/07 13:39:14;;;;;;;;;;;21.10;54.10;;;;;;5072454;28;19940;-58
2023/07/07 13:41:45;;;;;;;;;;;21.10;54.20;;;;;;5072260;28;19951;-59
2023/07/07 13:44:18;;;;;;;;;;;21.10;54.30;;;;;;5071349;28;20486;-59
2023/07/07 13:46:49;;;;;;;;;;;21.20;54.20;;;;;;5073639;28;20381;-58
2023/07/07 13:49:17;;;;;;;;;;;21.30;54.20;;;;;;5072909;28;20477;-59
2023/07/07 13:51:52;;;;;;;;;;;21.20;54.20;;;;;;5078388;28;19932;-59
2023/07/07 13:54:21;;;;;;;;;;;21.30;54.00;;;;;;5074165;28;20300;-59
2023/07/07 13:56:50;;;;;;;;;;;21.30;54.00;;;;;;5074750;28;19994;-59
2023/07/07 13:59:26;;;;;;;;;;;21.30;53.90;;;;;;5074252;28;19924;-59
2023/07/07 14:01:54;;;;;;;;;;;21.40;53.90;;;;;;5074301;28;19924;-57
2023/07/07 14:04:27;;;;;;;;;;;21.40;55.20;;;;;;5073588;28;19979;-58
2023/07/07 14:06:54;;;;;;;;;;;21.60;58.20;;;;;;5073624;28;19928;-59
2023/07/07 14:09:26;;;;;;;;;;;21.80;59.60;;;;;;5074125;28;20426;-59
2023/07/07 14:11:55;;;;;;;;;;;22.10;60.20;;;;;;5074180;28;20468;-59
2023/07/07 14:14:23;;;;;;;;;;;22.40;60.20;;;;;;5073965;28;19924;-59
2023/07/07 14:16:52;;;;;;;;;;;22.60;59.90;;;;;;5074299;28;19924;-59
2023/07/07 14:19:27;;;;;;;;;;;22.90;59.60;;;;;;5073949;28;20439;-59
2023/07/07 14:21:55;;;;;;;;;;;23.10;59.50;;;;;;5074156;28;19939;-59
2023/07/07 14:24:26;;;;;;;;;;;23.30;59.30;;;;;;5071769;28;20339;-59
2023/07/07 14:26:54;;;;;;;;;;;23.60;59.40;;;;;;5074024;28;19924;-60
2023/07/07 14:29:29;;;;;;;;;;;23.70;59.30;;;;;;5074303;28;19929;-59
2023/07/07 14:31:57;;;;;;;;;;;23.90;59.00;;;;;;5072895;28;19982;-60
2023/07/07 14:34:24;;;;;;;;;;;24.10;58.70;;;;;;5072895;28;19924;-59
2023/07/07 14:36:54;;;;;;;;;;;24.20;58.60;;;;;;5072946;28;19976;-57